sensor_id;sensor_type;location;lat;lon;timestamp;temperature;humidity
70068;DHT22;57425;51.616;6.680;2022-11-12T00:01:17;9.20;71.10
70068;DHT22;57425;51.616;6.680;2022-11-12T00:03:43;9.20;71.10
70068;DHT22;57425;51.616;6.680;2022-11-12T00:06:09;9.20;71.10
70068;DHT22;57425;51.616;6.680;2022-11-12T00:08:34;9.30;71.10
70068;DHT22;57425;51.616;6.680;2022-11-12T00:11:00;9.30;71.10
70068;DHT22;57425;51.616;6.680;2022-11-12T00:13:26;9.20;71.10
70068;DHT22;57425;51.616;6.680;2022-11-12T00:15:52;9.10;71.00
70068;DHT22;57425;51.616;6.680;2022-11-12T00:18:17;9.10;71.00
70068;DHT22;57425;51.616;6.680;2022-11-12T00:20:43;9.10;71.10
70068;DHT22;57425;51.616;6.680;2022-11-12T00:23:09;9.10;71.00
70068;DHT22;57425;51.616;6.680;2022-11-12T00:25:35;9.10;71.10
70068;DHT22;57425;51.616;6.680;2022-11-12T00:28:05;9.10;71.00
70068;DHT22;57425;51.616;6.680;2022-11-12T00:30:31;9.10;71.00
70068;DHT22;57425;51.616;6.680;2022-11-12T00:33:00;9.10;71.10
70068;DHT22;57425;51.616;6.680;2022-11-12T00:35:26;9.10;71.60
70068;DHT22;57425;51.616;6.680;2022-11-12T00:37:53;9.00;71.00
70068;DHT22;57425;51.616;6.680;2022-11-12T00:40:20;9.00;71.00
70068;DHT22;57425;51.616;6.680;2022-11-12T00:42:45;9.00;71.00
70068;DHT22;57425;51.616;6.680;2022-11-12T00:45:11;9.00;71.00
70068;DHT22;57425;51.616;6.680;2022-11-12T00:47:36;9.00;71.00
70068;DHT22;57425;51.616;6.680;2022-11-12T00:50:02;9.00;71.00
70068;DHT22;57425;51.616;6.680;2022-11-12T00:52:27;9.00;70.90
70068;DHT22;57425;51.616;6.680;2022-11-12T00:54:53;9.00;71.50
70068;DHT22;57425;51.616;6.680;2022-11-12T00:57:19;9.10;71.00
70068;DHT22;57425;51.616;6.680;2022-11-12T00:59:44;8.90;71.30
70068;DHT22;57425;51.616;6.680;2022-11-12T01:02:10;8.90;70.80
70068;DHT22;57425;51.616;6.680;2022-11-12T01:04:35;8.90;70.90
70068;DHT22;57425;51.616;6.680;2022-11-12T01:07:01;8.90;70.90
70068;DHT22;57425;51.616;6.680;2022-11-12T01:09:27;8.90;70.90
70068;DHT22;57425;51.616;6.680;2022-11-12T01:11:52;8.90;71.00
70068;DHT22;57425;51.616;6.680;2022-11-12T01:14:18;8.90;70.90
70068;DHT22;57425;51.616;6.680;2022-11-12T01:16:43;8.80;70.90
70068;DHT22;57425;51.616;6.680;2022-11-12T01:19:10;8.80;70.90
70068;DHT22;57425;51.616;6.680;2022-11-12T01:21:39;8.80;71.00
70068;DHT22;57425;51.616;6.680;2022-11-12T01:24:05;8.80;71.00
70068;DHT22;57425;51.616;6.680;2022-11-12T01:26:31;8.80;71.10
70068;DHT22;57425;51.616;6.680;2022-11-12T01:28:57;8.90;71.20
70068;DHT22;57425;51.616;6.680;2022-11-12T01:31:27;8.70;71.20
70068;DHT22;57425;51.616;6.680;2022-11-12T01:33:58;8.70;71.30
70068;DHT22;57425;51.616;6.680;2022-11-12T01:36:25;8.70;71.30
70068;DHT22;57425;51.616;6.680;2022-11-12T01:38:52;8.70;71.30
70068;DHT22;57425;51.616;6.680;2022-11-12T01:41:28;8.70;71.30
70068;DHT22;57425;51.616;6.680;2022-11-12T01:46:34;8.70;71.00
70068;DHT22;57425;51.616;6.680;2022-11-12T01:49:04;8.70;71.20
70068;DHT22;57425;51.616;6.680;2022-11-12T01:51:37;8.70;71.10
70068;DHT22;57425;51.616;6.680;2022-11-12T01:54:08;8.80;71.10
70068;DHT22;57425;51.616;6.680;2022-11-12T01:56:36;8.60;71.00
70068;DHT22;57425;51.616;6.680;2022-11-12T01:59:19;8.60;71.10
70068;DHT22;57425;51.616;6.680;2022-11-12T02:01:46;8.70;70.90
70068;DHT22;57425;51.616;6.680;2022-11-12T02:04:12;8.60;71.10
70068;DHT22;57425;51.616;6.680;2022-11-12T02:06:39;8.60;71.50
70068;DHT22;57425;51.616;6.680;2022-11-12T02:09:06;8.60;71.00
70068;DHT22;57425;51.616;6.680;2022-11-12T02:11:32;8.50;71.00
70068;DHT22;57425;51.616;6.680;2022-11-12T02:13:57;8.50;71.00
70068;DHT22;57425;51.616;6.680;2022-11-12T02:16:31;8.50;71.00
70068;DHT22;57425;51.616;6.680;2022-11-12T02:18:58;8.50;70.90
70068;DHT22;57425;51.616;6.680;2022-11-12T02:21:24;8.50;71.00
70068;DHT22;57425;51.616;6.680;2022-11-12T02:23:58;8.50;71.50
70068;DHT22;57425;51.616;6.680;2022-11-12T02:26:25;8.50;70.80
70068;DHT22;57425;51.616;6.680;2022-11-12T02:28:54;8.50;71.00
70068;DHT22;57425;51.616;6.680;2022-11-12T02:31:20;8.50;71.00
70068;DHT22;57425;51.616;6.680;2022-11-12T02:33:46;8.50;70.90
70068;DHT22;57425;51.616;6.680;2022-11-12T02:36:11;8.40;70.90
70068;DHT22;57425;51.616;6.680;2022-11-12T02:38:37;8.40;70.90
70068;DHT22;57425;51.616;6.680;2022-11-12T02:41:02;8.40;70.90
70068;DHT22;57425;51.616;6.680;2022-11-12T02:43:28;8.40;70.90
70068;DHT22;57425;51.616;6.680;2022-11-12T02:45:54;8.40;70.90
70068;DHT22;57425;51.616;6.680;2022-11-12T02:48:19;8.40;70.80
70068;DHT22;57425;51.616;6.680;2022-11-12T02:50:46;8.60;70.90
70068;DHT22;57425;51.616;6.680;2022-11-12T02:53:12;8.40;70.70
70068;DHT22;57425;51.616;6.680;2022-11-12T02:55:38;8.40;70.80
70068;DHT22;57425;51.616;6.680;2022-11-12T02:58:03;8.30;70.70
70068;DHT22;57425;51.616;6.680;2022-11-12T03:00:29;8.30;70.80
70068;DHT22;57425;51.616;6.680;2022-11-12T03:02:55;8.30;70.80
70068;DHT22;57425;51.616;6.680;2022-11-12T03:05:28;8.30;70.80
70068;DHT22;57425;51.616;6.680;2022-11-12T03:07:59;8.30;70.80
70068;DHT22;57425;51.616;6.680;2022-11-12T03:10:26;8.30;70.80
70068;DHT22;57425;51.616;6.680;2022-11-12T03:12:53;8.40;70.90
70068;DHT22;57425;51.616;6.680;2022-11-12T03:15:18;8.30;70.90
70068;DHT22;57425;51.616;6.680;2022-11-12T03:17:44;8.40;70.90
70068;DHT22;57425;51.616;6.680;2022-11-12T03:20:10;8.30;70.90
70068;DHT22;57425;51.616;6.680;2022-11-12T03:22:38;8.30;70.80
70068;DHT22;57425;51.616;6.680;2022-11-12T03:25:04;8.20;70.70
70068;DHT22;57425;51.616;6.680;2022-11-12T03:27:32;8.20;70.70
70068;DHT22;57425;51.616;6.680;2022-11-12T03:29:57;8.20;70.80
70068;DHT22;57425;51.616;6.680;2022-11-12T03:32:23;8.20;70.80
70068;DHT22;57425;51.616;6.680;2022-11-12T03:37:15;8.20;70.40
70068;DHT22;57425;51.616;6.680;2022-11-12T03:39:40;8.20;70.80
70068;DHT22;57425;51.616;6.680;2022-11-12T03:42:06;8.10;70.70
70068;DHT22;57425;51.616;6.680;2022-11-12T03:44:32;8.20;70.90
70068;DHT22;57425;51.616;6.680;2022-11-12T03:46:57;8.10;70.80
70068;DHT22;57425;51.616;6.680;2022-11-12T03:49:23;8.10;70.80
70068;DHT22;57425;51.616;6.680;2022-11-12T03:51:48;8.10;70.80
70068;DHT22;57425;51.616;6.680;2022-11-12T03:54:14;8.10;70.80
70068;DHT22;57425;51.616;6.680;2022-11-12T03:56:39;8.10;70.80
70068;DHT22;57425;51.616;6.680;2022-11-12T03:59:05;8.10;70.90
70068;DHT22;57425;51.616;6.680;2022-11-12T04:01:31;8.10;70.90
70068;DHT22;57425;51.616;6.680;2022-11-12T04:03:57;8.10;70.90
70068;DHT22;57425;51.616;6.680;2022-11-12T04:06:22;8.00;70.90
70068;DHT22;57425;51.616;6.680;2022-11-12T04:09:06;8.10;71.50
70068;DHT22;57425;51.616;6.680;2022-11-12T04:11:32;8.00;70.90
70068;DHT22;57425;51.616;6.680;2022-11-12T04:13:57;8.00;70.90
70068;DHT22;57425;51.616;6.680;2022-11-12T04:16:23;8.00;71.00
70068;DHT22;57425;51.616;6.680;2022-11-12T04:19:11;8.00;71.00
70068;DHT22;57425;51.616;6.680;2022-11-12T04:22:00;8.00;70.90
70068;DHT22;57425;51.616;6.680;2022-11-12T04:24:37;8.00;71.00
70068;DHT22;57425;51.616;6.680;2022-11-12T04:27:25;8.00;70.80
70068;DHT22;57425;51.616;6.680;2022-11-12T04:29:51;7.90;70.90
70068;DHT22;57425;51.616;6.680;2022-11-12T04:32:37;8.00;71.00
70068;DHT22;57425;51.616;6.680;2022-11-12T04:35:05;8.00;70.90
70068;DHT22;57425;51.616;6.680;2022-11-12T04:37:32;7.90;70.90
70068;DHT22;57425;51.616;6.680;2022-11-12T04:42:57;7.90;70.90
70068;DHT22;57425;51.616;6.680;2022-11-12T04:45:43;7.90;71.00
70068;DHT22;57425;51.616;6.680;2022-11-12T04:48:09;7.90;70.90
70068;DHT22;57425;51.616;6.680;2022-11-12T04:50:35;7.80;71.00
70068;DHT22;57425;51.616;6.680;2022-11-12T04:53:01;7.80;70.90
70068;DHT22;57425;51.616;6.680;2022-11-12T04:55:26;7.80;70.90
70068;DHT22;57425;51.616;6.680;2022-11-12T04:57:52;7.80;70.80
70068;DHT22;57425;51.616;6.680;2022-11-12T05:00:18;7.80;70.80
70068;DHT22;57425;51.616;6.680;2022-11-12T05:02:43;7.90;70.90
70068;DHT22;57425;51.616;6.680;2022-11-12T05:05:09;7.80;70.80
70068;DHT22;57425;51.616;6.680;2022-11-12T05:07:35;7.80;70.70
70068;DHT22;57425;51.616;6.680;2022-11-12T05:10:00;7.80;70.70
70068;DHT22;57425;51.616;6.680;2022-11-12T05:12:26;7.80;70.80
70068;DHT22;57425;51.616;6.680;2022-11-12T05:14:51;7.80;70.80
70068;DHT22;57425;51.616;6.680;2022-11-12T05:17:17;7.80;70.80
70068;DHT22;57425;51.616;6.680;2022-11-12T05:19:43;7.70;71.30
70068;DHT22;57425;51.616;6.680;2022-11-12T05:22:09;7.80;70.80
70068;DHT22;57425;51.616;6.680;2022-11-12T05:24:40;7.90;70.90
70068;DHT22;57425;51.616;6.680;2022-11-12T05:27:09;7.70;70.80
70068;DHT22;57425;51.616;6.680;2022-11-12T05:29:35;7.70;70.80
70068;DHT22;57425;51.616;6.680;2022-11-12T05:32:01;7.70;70.80
70068;DHT22;57425;51.616;6.680;2022-11-12T05:34:27;7.70;71.40
70068;DHT22;57425;51.616;6.680;2022-11-12T05:36:52;7.70;70.90
70068;DHT22;57425;51.616;6.680;2022-11-12T05:39:18;7.70;70.90
70068;DHT22;57425;51.616;6.680;2022-11-12T05:41:44;7.70;70.90
70068;DHT22;57425;51.616;6.680;2022-11-12T05:44:10;7.70;70.80
70068;DHT22;57425;51.616;6.680;2022-11-12T05:46:35;7.60;70.80
70068;DHT22;57425;51.616;6.680;2022-11-12T05:49:01;7.60;70.80
70068;DHT22;57425;51.616;6.680;2022-11-12T05:51:27;7.60;70.90
70068;DHT22;57425;51.616;6.680;2022-11-12T05:53:52;7.60;70.90
70068;DHT22;57425;51.616;6.680;2022-11-12T05:56:18;7.60;70.80
70068;DHT22;57425;51.616;6.680;2022-11-12T05:58:43;7.60;70.90
70068;DHT22;57425;51.616;6.680;2022-11-12T06:01:09;7.60;70.80
70068;DHT22;57425;51.616;6.680;2022-11-12T06:03:35;7.60;70.80
70068;DHT22;57425;51.616;6.680;2022-11-12T06:06:00;7.60;70.80
70068;DHT22;57425;51.616;6.680;2022-11-12T06:08:27;7.50;70.70
70068;DHT22;57425;51.616;6.680;2022-11-12T06:10:53;7.50;70.70
70068;DHT22;57425;51.616;6.680;2022-11-12T06:13:21;7.50;70.70
70068;DHT22;57425;51.616;6.680;2022-11-12T06:15:46;7.50;70.70
70068;DHT22;57425;51.616;6.680;2022-11-12T06:18:12;7.50;70.70
70068;DHT22;57425;51.616;6.680;2022-11-12T06:20:38;7.50;70.80
70068;DHT22;57425;51.616;6.680;2022-11-12T06:23:04;7.50;70.80
70068;DHT22;57425;51.616;6.680;2022-11-12T06:25:29;7.50;70.80
70068;DHT22;57425;51.616;6.680;2022-11-12T06:27:55;7.50;70.80
70068;DHT22;57425;51.616;6.680;2022-11-12T06:30:21;7.50;70.80
70068;DHT22;57425;51.616;6.680;2022-11-12T06:32:47;7.50;70.80
70068;DHT22;57425;51.616;6.680;2022-11-12T06:35:13;7.40;70.70
70068;DHT22;57425;51.616;6.680;2022-11-12T06:37:39;7.40;70.70
70068;DHT22;57425;51.616;6.680;2022-11-12T06:40:06;7.40;70.70
70068;DHT22;57425;51.616;6.680;2022-11-12T06:42:32;7.40;70.70
70068;DHT22;57425;51.616;6.680;2022-11-12T06:44:57;7.40;70.70
70068;DHT22;57425;51.616;6.680;2022-11-12T06:47:23;7.40;70.70
70068;DHT22;57425;51.616;6.680;2022-11-12T06:49:48;7.40;70.70
70068;DHT22;57425;51.616;6.680;2022-11-12T06:52:15;7.40;70.80
70068;DHT22;57425;51.616;6.680;2022-11-12T06:54:41;7.40;70.70
70068;DHT22;57425;51.616;6.680;2022-11-12T06:57:06;7.40;70.80
70068;DHT22;57425;51.616;6.680;2022-11-12T06:59:33;7.40;70.80
70068;DHT22;57425;51.616;6.680;2022-11-12T07:01:59;7.30;70.70
70068;DHT22;57425;51.616;6.680;2022-11-12T07:04:24;7.30;70.90
70068;DHT22;57425;51.616;6.680;2022-11-12T07:06:50;7.30;70.90
70068;DHT22;57425;51.616;6.680;2022-11-12T07:09:16;7.30;70.90
70068;DHT22;57425;51.616;6.680;2022-11-12T07:11:41;7.40;71.00
70068;DHT22;57425;51.616;6.680;2022-11-12T07:14:07;7.30;71.00
70068;DHT22;57425;51.616;6.680;2022-11-12T07:16:33;7.30;71.00
70068;DHT22;57425;51.616;6.680;2022-11-12T07:18:59;7.30;71.00
70068;DHT22;57425;51.616;6.680;2022-11-12T07:21:25;7.30;71.10
70068;DHT22;57425;51.616;6.680;2022-11-12T07:23:52;7.30;71.10
70068;DHT22;57425;51.616;6.680;2022-11-12T07:26:22;7.30;71.70
70068;DHT22;57425;51.616;6.680;2022-11-12T07:28:49;7.30;71.20
70068;DHT22;57425;51.616;6.680;2022-11-12T07:31:17;7.30;71.30
70068;DHT22;57425;51.616;6.680;2022-11-12T07:33:44;7.30;71.30
70068;DHT22;57425;51.616;6.680;2022-11-12T07:36:15;7.20;71.40
70068;DHT22;57425;51.616;6.680;2022-11-12T07:38:42;7.30;71.50
70068;DHT22;57425;51.616;6.680;2022-11-12T07:41:11;7.20;71.60
70068;DHT22;57425;51.616;6.680;2022-11-12T07:43:38;7.20;71.80
70068;DHT22;57425;51.616;6.680;2022-11-12T07:46:07;7.20;72.00
70068;DHT22;57425;51.616;6.680;2022-11-12T07:48:33;7.20;72.00
70068;DHT22;57425;51.616;6.680;2022-11-12T07:51:20;7.20;72.10
70068;DHT22;57425;51.616;6.680;2022-11-12T07:53:47;7.20;72.20
70068;DHT22;57425;51.616;6.680;2022-11-12T07:56:18;7.20;72.40
70068;DHT22;57425;51.616;6.680;2022-11-12T07:58:44;7.30;72.50
70068;DHT22;57425;51.616;6.680;2022-11-12T08:01:24;7.20;72.50
70068;DHT22;57425;51.616;6.680;2022-11-12T08:03:52;7.20;72.70
70068;DHT22;57425;51.616;6.680;2022-11-12T08:06:18;7.20;72.70
70068;DHT22;57425;51.616;6.680;2022-11-12T08:08:45;7.20;72.80
70068;DHT22;57425;51.616;6.680;2022-11-12T08:11:11;7.20;73.00
70068;DHT22;57425;51.616;6.680;2022-11-12T08:13:37;7.10;73.10
70068;DHT22;57425;51.616;6.680;2022-11-12T08:16:03;7.20;73.80
70068;DHT22;57425;51.616;6.680;2022-11-12T08:18:28;7.10;73.30
70068;DHT22;57425;51.616;6.680;2022-11-12T08:21:03;7.10;73.40
70068;DHT22;57425;51.616;6.680;2022-11-12T08:23:29;7.10;73.60
70068;DHT22;57425;51.616;6.680;2022-11-12T08:25:59;7.10;73.60
70068;DHT22;57425;51.616;6.680;2022-11-12T08:28:25;7.10;73.70
70068;DHT22;57425;51.616;6.680;2022-11-12T08:30:52;7.10;73.80
70068;DHT22;57425;51.616;6.680;2022-11-12T08:33:18;7.10;73.90
70068;DHT22;57425;51.616;6.680;2022-11-12T08:35:44;7.10;74.00
70068;DHT22;57425;51.616;6.680;2022-11-12T08:38:09;7.10;74.20
70068;DHT22;57425;51.616;6.680;2022-11-12T08:40:36;7.10;74.30
70068;DHT22;57425;51.616;6.680;2022-11-12T08:43:06;7.10;74.40
70068;DHT22;57425;51.616;6.680;2022-11-12T08:45:37;7.30;74.70
70068;DHT22;57425;51.616;6.680;2022-11-12T08:48:06;7.10;74.60
70068;DHT22;57425;51.616;6.680;2022-11-12T08:50:33;7.10;74.70
70068;DHT22;57425;51.616;6.680;2022-11-12T08:53:04;7.10;74.80
70068;DHT22;57425;51.616;6.680;2022-11-12T08:55:31;7.10;74.90
70068;DHT22;57425;51.616;6.680;2022-11-12T08:57:58;7.10;75.00
70068;DHT22;57425;51.616;6.680;2022-11-12T09:00:34;7.10;75.00
70068;DHT22;57425;51.616;6.680;2022-11-12T09:03:01;7.10;75.10
70068;DHT22;57425;51.616;6.680;2022-11-12T09:05:28;7.10;75.10
70068;DHT22;57425;51.616;6.680;2022-11-12T09:08:04;7.10;75.30
70068;DHT22;57425;51.616;6.680;2022-11-12T09:10:30;7.10;75.40
70068;DHT22;57425;51.616;6.680;2022-11-12T09:12:56;7.10;75.30
70068;DHT22;57425;51.616;6.680;2022-11-12T09:15:22;7.10;75.40
70068;DHT22;57425;51.616;6.680;2022-11-12T09:18:00;7.20;75.50
70068;DHT22;57425;51.616;6.680;2022-11-12T09:20:27;7.10;75.60
70068;DHT22;57425;51.616;6.680;2022-11-12T09:22:58;7.10;75.60
70068;DHT22;57425;51.616;6.680;2022-11-12T09:25:24;7.10;75.60
70068;DHT22;57425;51.616;6.680;2022-11-12T09:27:51;7.10;75.60
70068;DHT22;57425;51.616;6.680;2022-11-12T09:30:17;7.20;75.70
70068;DHT22;57425;51.616;6.680;2022-11-12T09:32:42;7.20;75.70
70068;DHT22;57425;51.616;6.680;2022-11-12T09:35:08;7.20;75.80
70068;DHT22;57425;51.616;6.680;2022-11-12T09:37:36;7.20;76.40
70068;DHT22;57425;51.616;6.680;2022-11-12T09:40:03;7.30;75.90
70068;DHT22;57425;51.616;6.680;2022-11-12T09:42:29;7.20;75.90
70068;DHT22;57425;51.616;6.680;2022-11-12T09:45:06;7.20;75.90
70068;DHT22;57425;51.616;6.680;2022-11-12T09:47:53;7.30;76.20
70068;DHT22;57425;51.616;6.680;2022-11-12T09:50:33;7.30;76.10
70068;DHT22;57425;51.616;6.680;2022-11-12T09:53:12;7.30;76.20
70068;DHT22;57425;51.616;6.680;2022-11-12T09:55:42;7.30;76.10
70068;DHT22;57425;51.616;6.680;2022-11-12T09:58:11;7.30;76.20
70068;DHT22;57425;51.616;6.680;2022-11-12T10:00:40;7.30;76.20
70068;DHT22;57425;51.616;6.680;2022-11-12T10:05:59;7.30;76.40
70068;DHT22;57425;51.616;6.680;2022-11-12T10:17:08;7.40;76.40
70068;DHT22;57425;51.616;6.680;2022-11-12T10:25:18;7.40;76.50
70068;DHT22;57425;51.616;6.680;2022-11-12T10:27:44;7.50;76.60
70068;DHT22;57425;51.616;6.680;2022-11-12T10:30:21;7.40;76.50
70068;DHT22;57425;51.616;6.680;2022-11-12T10:32:51;7.50;76.70
70068;DHT22;57425;51.616;6.680;2022-11-12T10:35:21;7.60;76.80
70068;DHT22;57425;51.616;6.680;2022-11-12T10:38:00;7.50;76.80
70068;DHT22;57425;51.616;6.680;2022-11-12T10:40:33;7.50;76.90
70068;DHT22;57425;51.616;6.680;2022-11-12T10:43:03;7.60;76.90
70068;DHT22;57425;51.616;6.680;2022-11-12T10:45:29;7.70;76.90
70068;DHT22;57425;51.616;6.680;2022-11-12T10:47:55;7.60;76.90
70068;DHT22;57425;51.616;6.680;2022-11-12T10:50:28;7.60;76.90
70068;DHT22;57425;51.616;6.680;2022-11-12T10:53:06;7.60;76.90
70068;DHT22;57425;51.616;6.680;2022-11-12T10:55:35;7.70;77.00
70068;DHT22;57425;51.616;6.680;2022-11-12T11:00:36;7.70;77.00
70068;DHT22;57425;51.616;6.680;2022-11-12T11:03:25;7.70;77.60
70068;DHT22;57425;51.616;6.680;2022-11-12T11:05:58;7.80;77.10
70068;DHT22;57425;51.616;6.680;2022-11-12T11:08:38;7.80;77.10
70068;DHT22;57425;51.616;6.680;2022-11-12T11:11:15;7.80;77.10
70068;DHT22;57425;51.616;6.680;2022-11-12T11:13:43;7.80;77.10
70068;DHT22;57425;51.616;6.680;2022-11-12T11:16:20;7.80;77.10
70068;DHT22;57425;51.616;6.680;2022-11-12T11:18:49;7.90;77.20
70068;DHT22;57425;51.616;6.680;2022-11-12T11:29:27;7.90;77.30
70068;DHT22;57425;51.616;6.680;2022-11-12T11:37:37;8.00;77.50
70068;DHT22;57425;51.616;6.680;2022-11-12T11:40:33;8.10;77.60
70068;DHT22;57425;51.616;6.680;2022-11-12T11:51:41;8.20;77.70
70068;DHT22;57425;51.616;6.680;2022-11-12T11:56:58;8.30;77.80
70068;DHT22;57425;51.616;6.680;2022-11-12T12:05:41;8.30;77.70
70068;DHT22;57425;51.616;6.680;2022-11-12T12:08:14;8.30;77.70
70068;DHT22;57425;51.616;6.680;2022-11-12T12:10:49;8.40;77.60
70068;DHT22;57425;51.616;6.680;2022-11-12T12:18:51;8.50;77.70
70068;DHT22;57425;51.616;6.680;2022-11-12T12:21:20;8.50;77.50
70068;DHT22;57425;51.616;6.680;2022-11-12T12:23:55;8.50;77.50
70068;DHT22;57425;51.616;6.680;2022-11-12T12:31:37;8.70;77.70
70068;DHT22;57425;51.616;6.680;2022-11-12T12:34:29;8.70;77.80
70068;DHT22;57425;51.616;6.680;2022-11-12T12:37:04;8.70;77.90
70068;DHT22;57425;51.616;6.680;2022-11-12T12:39:57;8.70;77.80
70068;DHT22;57425;51.616;6.680;2022-11-12T12:42:31;8.70;77.80
70068;DHT22;57425;51.616;6.680;2022-11-12T12:45:13;8.70;77.70
70068;DHT22;57425;51.616;6.680;2022-11-12T12:47:45;8.90;77.80
70068;DHT22;57425;51.616;6.680;2022-11-12T12:50:13;8.80;77.70
70068;DHT22;57425;51.616;6.680;2022-11-12T12:53:03;8.80;77.70
70068;DHT22;57425;51.616;6.680;2022-11-12T12:55:41;8.90;77.80
70068;DHT22;57425;51.616;6.680;2022-11-12T12:58:31;8.90;77.80
70068;DHT22;57425;51.616;6.680;2022-11-12T13:19:32;9.10;78.00
70068;DHT22;57425;51.616;6.680;2022-11-12T13:40:44;9.30;78.30
70068;DHT22;57425;51.616;6.680;2022-11-12T13:48:35;9.60;78.80
70068;DHT22;57425;51.616;6.680;2022-11-12T13:51:11;9.60;78.70
70068;DHT22;57425;51.616;6.680;2022-11-12T13:53:38;9.70;78.90
70068;DHT22;57425;51.616;6.680;2022-11-12T13:56:04;9.80;79.00
70068;DHT22;57425;51.616;6.680;2022-11-12T13:58:32;9.90;78.90
70068;DHT22;57425;51.616;6.680;2022-11-12T14:05:54;10.00;78.40
70068;DHT22;57425;51.616;6.680;2022-11-12T14:08:53;10.10;78.80
70068;DHT22;57425;51.616;6.680;2022-11-12T14:14:12;10.10;78.60
70068;DHT22;57425;51.616;6.680;2022-11-12T14:17:01;10.00;78.40
70068;DHT22;57425;51.616;6.680;2022-11-12T14:22:13;10.00;78.40
70068;DHT22;57425;51.616;6.680;2022-11-12T14:24:40;10.00;78.40
70068;DHT22;57425;51.616;6.680;2022-11-12T14:30:14;10.00;78.40
70068;DHT22;57425;51.616;6.680;2022-11-12T14:32:43;9.90;78.40
70068;DHT22;57425;51.616;6.680;2022-11-12T14:40:27;9.90;78.50
70068;DHT22;57425;51.616;6.680;2022-11-12T14:42:53;10.00;78.50
70068;DHT22;57425;51.616;6.680;2022-11-12T14:45:21;10.00;78.50
70068;DHT22;57425;51.616;6.680;2022-11-12T14:47:49;10.10;78.60
70068;DHT22;57425;51.616;6.680;2022-11-12T14:50:23;9.90;78.50
70068;DHT22;57425;51.616;6.680;2022-11-12T14:55:47;9.90;78.60
70068;DHT22;57425;51.616;6.680;2022-11-12T14:58:15;9.90;78.60
70068;DHT22;57425;51.616;6.680;2022-11-12T15:00:45;9.90;78.60
70068;DHT22;57425;51.616;6.680;2022-11-12T15:03:14;9.90;78.70
70068;DHT22;57425;51.616;6.680;2022-11-12T15:08:32;10.00;79.10
70068;DHT22;57425;51.616;6.680;2022-11-12T15:11:21;10.00;79.20
70068;DHT22;57425;51.616;6.680;2022-11-12T15:13:49;10.00;79.30
70068;DHT22;57425;51.616;6.680;2022-11-12T15:16:22;10.00;79.30
70068;DHT22;57425;51.616;6.680;2022-11-12T15:21:52;10.10;79.60
70068;DHT22;57425;51.616;6.680;2022-11-12T15:24:22;10.10;79.60
70068;DHT22;57425;51.616;6.680;2022-11-12T15:26:51;10.10;79.60
70068;DHT22;57425;51.616;6.680;2022-11-12T15:29:27;10.10;79.70
70068;DHT22;57425;51.616;6.680;2022-11-12T15:34:44;10.10;79.70
70068;DHT22;57425;51.616;6.680;2022-11-12T15:37:18;10.10;79.90
70068;DHT22;57425;51.616;6.680;2022-11-12T15:39:48;10.10;79.90
70068;DHT22;57425;51.616;6.680;2022-11-12T15:42:15;10.10;80.00
70068;DHT22;57425;51.616;6.680;2022-11-12T15:44:41;10.10;80.00
70068;DHT22;57425;51.616;6.680;2022-11-12T15:47:19;10.10;79.90
70068;DHT22;57425;51.616;6.680;2022-11-12T15:49:50;10.10;80.10
70068;DHT22;57425;51.616;6.680;2022-11-12T15:52:16;10.10;80.00
70068;DHT22;57425;51.616;6.680;2022-11-12T15:54:43;10.10;80.10
70068;DHT22;57425;51.616;6.680;2022-11-12T15:57:19;10.10;80.10
70068;DHT22;57425;51.616;6.680;2022-11-12T15:59:59;10.10;80.20
70068;DHT22;57425;51.616;6.680;2022-11-12T16:02:25;10.10;80.20
70068;DHT22;57425;51.616;6.680;2022-11-12T16:04:51;10.10;80.20
70068;DHT22;57425;51.616;6.680;2022-11-12T16:07:17;10.10;80.20
70068;DHT22;57425;51.616;6.680;2022-11-12T16:09:43;10.10;80.20
70068;DHT22;57425;51.616;6.680;2022-11-12T16:12:12;10.10;80.20
70068;DHT22;57425;51.616;6.680;2022-11-12T16:14:39;10.10;80.10
70068;DHT22;57425;51.616;6.680;2022-11-12T16:17:13;10.10;80.60
70068;DHT22;57425;51.616;6.680;2022-11-12T16:19:40;10.10;80.00
70068;DHT22;57425;51.616;6.680;2022-11-12T16:22:06;10.20;80.00
70068;DHT22;57425;51.616;6.680;2022-11-12T16:24:40;10.10;79.90
70068;DHT22;57425;51.616;6.680;2022-11-12T16:27:16;10.10;79.80
70068;DHT22;57425;51.616;6.680;2022-11-12T16:29:42;10.10;79.70
70068;DHT22;57425;51.616;6.680;2022-11-12T16:32:14;10.10;79.60
70068;DHT22;57425;51.616;6.680;2022-11-12T16:34:40;10.10;79.60
70068;DHT22;57425;51.616;6.680;2022-11-12T16:37:09;10.10;79.60
70068;DHT22;57425;51.616;6.680;2022-11-12T16:39:37;10.10;79.60
70068;DHT22;57425;51.616;6.680;2022-11-12T16:42:03;10.10;79.50
70068;DHT22;57425;51.616;6.680;2022-11-12T16:44:29;10.10;79.40
70068;DHT22;57425;51.616;6.680;2022-11-12T16:46:54;10.10;79.40
70068;DHT22;57425;51.616;6.680;2022-11-12T16:49:20;10.10;79.30
70068;DHT22;57425;51.616;6.680;2022-11-12T16:51:46;10.10;79.20
70068;DHT22;57425;51.616;6.680;2022-11-12T16:54:11;10.10;79.20
70068;DHT22;57425;51.616;6.680;2022-11-12T16:56:37;10.10;79.20
70068;DHT22;57425;51.616;6.680;2022-11-12T16:59:03;10.10;79.20
70068;DHT22;57425;51.616;6.680;2022-11-12T17:01:30;10.10;79.20
70068;DHT22;57425;51.616;6.680;2022-11-12T17:03:57;10.20;79.40
70068;DHT22;57425;51.616;6.680;2022-11-12T17:06:32;10.10;79.30
70068;DHT22;57425;51.616;6.680;2022-11-12T17:08:58;10.10;79.40
70068;DHT22;57425;51.616;6.680;2022-11-12T17:11:23;10.10;79.40
70068;DHT22;57425;51.616;6.680;2022-11-12T17:13:49;10.10;79.40
70068;DHT22;57425;51.616;6.680;2022-11-12T17:16:15;10.20;79.40
70068;DHT22;57425;51.616;6.680;2022-11-12T17:18:40;10.10;79.30
70068;DHT22;57425;51.616;6.680;2022-11-12T17:21:11;10.10;79.70
70068;DHT22;57425;51.616;6.680;2022-11-12T17:23:37;10.10;79.00
70068;DHT22;57425;51.616;6.680;2022-11-12T17:26:05;10.10;79.00
70068;DHT22;57425;51.616;6.680;2022-11-12T17:28:32;10.10;78.90
70068;DHT22;57425;51.616;6.680;2022-11-12T17:31:06;10.10;78.80
70068;DHT22;57425;51.616;6.680;2022-11-12T17:33:35;10.10;78.80
70068;DHT22;57425;51.616;6.680;2022-11-12T17:36:03;10.20;78.70
70068;DHT22;57425;51.616;6.680;2022-11-12T17:38:29;10.10;78.50
70068;DHT22;57425;51.616;6.680;2022-11-12T17:40:56;10.10;78.40
70068;DHT22;57425;51.616;6.680;2022-11-12T17:43:21;10.10;78.30
70068;DHT22;57425;51.616;6.680;2022-11-12T17:45:54;10.20;78.40
70068;DHT22;57425;51.616;6.680;2022-11-12T17:48:20;10.10;78.10
70068;DHT22;57425;51.616;6.680;2022-11-12T17:50:47;10.00;77.90
70068;DHT22;57425;51.616;6.680;2022-11-12T17:53:13;10.00;78.00
70068;DHT22;57425;51.616;6.680;2022-11-12T17:55:39;10.00;77.90
70068;DHT22;57425;51.616;6.680;2022-11-12T17:58:05;9.90;77.80
70068;DHT22;57425;51.616;6.680;2022-11-12T18:00:31;10.00;77.90
70068;DHT22;57425;51.616;6.680;2022-11-12T18:02:57;10.00;77.90
70068;DHT22;57425;51.616;6.680;2022-11-12T18:05:24;10.00;77.90
70068;DHT22;57425;51.616;6.680;2022-11-12T18:07:49;9.90;77.80
70068;DHT22;57425;51.616;6.680;2022-11-12T18:10:15;9.90;77.90
70068;DHT22;57425;51.616;6.680;2022-11-12T18:12:41;9.90;77.90
70068;DHT22;57425;51.616;6.680;2022-11-12T18:15:07;9.90;77.90